sensor_id;sensor_type;location;lat;lon;timestamp;P1;durP1;ratioP1;P2;durP2;ratioP2
18883;SDS011;9574;47.282;9.640;2022-11-20T00:01:40;4.33;;;2.30;;
18883;SDS011;9574;47.282;9.640;2022-11-20T00:04:08;3.57;;;2.30;;
18883;SDS011;9574;47.282;9.640;2022-11-20T00:06:37;2.20;;;1.63;;
18883;SDS011;9574;47.282;9.640;2022-11-20T00:09:09;2.77;;;1.80;;
18883;SDS011;9574;47.282;9.640;2022-11-20T00:11:39;5.43;;;2.40;;
18883;SDS011;9574;47.282;9.640;2022-11-20T00:14:14;2.77;;;1.70;;
18883;SDS011;9574;47.282;9.640;2022-11-20T00:16:41;3.83;;;2.23;;
18883;SDS011;9574;47.282;9.640;2022-11-20T00:19:09;3.37;;;2.60;;
18883;SDS011;9574;47.282;9.640;2022-11-20T00:21:39;3.90;;;2.90;;
18883;SDS011;9574;47.282;9.640;2022-11-20T00:24:14;4.10;;;3.00;;
18883;SDS011;9574;47.282;9.640;2022-11-20T00:26:44;4.60;;;2.70;;
18883;SDS011;9574;47.282;9.640;2022-11-20T00:29:14;5.43;;;3.00;;
18883;SDS011;9574;47.282;9.640;2022-11-20T00:31:45;4.93;;;3.00;;
18883;SDS011;9574;47.282;9.640;2022-11-20T00:34:18;7.27;;;3.00;;
18883;SDS011;9574;47.282;9.640;2022-11-20T00:36:46;3.30;;;2.90;;
18883;SDS011;9574;47.282;9.640;2022-11-20T00:39:16;3.33;;;2.63;;
18883;SDS011;9574;47.282;9.640;2022-11-20T00:41:44;3.93;;;2.40;;
18883;SDS011;9574;47.282;9.640;2022-11-20T00:44:17;3.77;;;2.97;;
18883;SDS011;9574;47.282;9.640;2022-11-20T00:46:47;3.73;;;3.00;;
18883;SDS011;9574;47.282;9.640;2022-11-20T00:49:17;6.50;;;3.10;;
18883;SDS011;9574;47.282;9.640;2022-11-20T00:51:52;7.93;;;2.97;;
18883;SDS011;9574;47.282;9.640;2022-11-20T00:54:22;3.77;;;2.70;;
18883;SDS011;9574;47.282;9.640;2022-11-20T00:56:52;4.17;;;2.50;;
18883;SDS011;9574;47.282;9.640;2022-11-20T00:59:23;3.73;;;2.27;;
18883;SDS011;9574;47.282;9.640;2022-11-20T01:01:58;4.67;;;2.40;;
18883;SDS011;9574;47.282;9.640;2022-11-20T01:04:25;5.10;;;2.87;;
18883;SDS011;9574;47.282;9.640;2022-11-20T01:06:54;4.13;;;2.33;;
18883;SDS011;9574;47.282;9.640;2022-11-20T01:09:21;3.23;;;2.40;;
18883;SDS011;9574;47.282;9.640;2022-11-20T01:11:51;2.77;;;1.80;;
18883;SDS011;9574;47.282;9.640;2022-11-20T01:14:19;2.30;;;2.00;;
18883;SDS011;9574;47.282;9.640;2022-11-20T01:16:51;2.90;;;2.00;;
18883;SDS011;9574;47.282;9.640;2022-11-20T01:19:20;2.80;;;2.03;;
18883;SDS011;9574;47.282;9.640;2022-11-20T01:21:53;3.63;;;2.03;;
18883;SDS011;9574;47.282;9.640;2022-11-20T01:24:21;1.60;;;1.50;;
18883;SDS011;9574;47.282;9.640;2022-11-20T01:26:51;2.27;;;1.73;;
18883;SDS011;9574;47.282;9.640;2022-11-20T01:29:19;2.63;;;1.80;;
18883;SDS011;9574;47.282;9.640;2022-11-20T01:31:52;4.00;;;1.53;;
18883;SDS011;9574;47.282;9.640;2022-11-20T01:34:21;2.63;;;1.73;;
18883;SDS011;9574;47.282;9.640;2022-11-20T01:36:51;2.60;;;1.90;;
18883;SDS011;9574;47.282;9.640;2022-11-20T01:39:22;3.67;;;2.03;;
18883;SDS011;9574;47.282;9.640;2022-11-20T01:41:56;2.07;;;1.90;;
18883;SDS011;9574;47.282;9.640;2022-11-20T01:44:54;3.43;;;1.87;;
18883;SDS011;9574;47.282;9.640;2022-11-20T01:47:28;2.20;;;2.00;;
18883;SDS011;9574;47.282;9.640;2022-11-20T01:50:05;1.90;;;1.70;;
18883;SDS011;9574;47.282;9.640;2022-11-20T01:52:41;2.17;;;1.63;;
18883;SDS011;9574;47.282;9.640;2022-11-20T01:55:19;3.20;;;2.20;;
18883;SDS011;9574;47.282;9.640;2022-11-20T01:57:50;1.87;;;1.70;;
18883;SDS011;9574;47.282;9.640;2022-11-20T02:00:20;2.83;;;1.70;;
18883;SDS011;9574;47.282;9.640;2022-11-20T02:02:51;3.07;;;1.90;;
18883;SDS011;9574;47.282;9.640;2022-11-20T02:05:23;2.87;;;2.00;;
18883;SDS011;9574;47.282;9.640;2022-11-20T02:07:56;4.13;;;1.80;;
18883;SDS011;9574;47.282;9.640;2022-11-20T02:10:31;2.43;;;1.67;;
18883;SDS011;9574;47.282;9.640;2022-11-20T02:13:02;2.37;;;1.93;;
18883;SDS011;9574;47.282;9.640;2022-11-20T02:15:48;3.93;;;1.80;;
18883;SDS011;9574;47.282;9.640;2022-11-20T02:18:19;4.37;;;1.70;;
18883;SDS011;9574;47.282;9.640;2022-11-20T02:20:48;3.50;;;1.70;;
18883;SDS011;9574;47.282;9.640;2022-11-20T02:23:23;2.50;;;1.50;;
18883;SDS011;9574;47.282;9.640;2022-11-20T02:26:06;4.80;;;1.90;;
18883;SDS011;9574;47.282;9.640;2022-11-20T02:28:41;3.33;;;1.80;;
18883;SDS011;9574;47.282;9.640;2022-11-20T02:31:09;4.90;;;2.00;;
18883;SDS011;9574;47.282;9.640;2022-11-20T02:33:37;3.27;;;1.73;;
18883;SDS011;9574;47.282;9.640;2022-11-20T02:36:07;2.67;;;1.90;;
18883;SDS011;9574;47.282;9.640;2022-11-20T02:38:39;3.67;;;1.90;;
18883;SDS011;9574;47.282;9.640;2022-11-20T02:41:09;2.67;;;2.00;;
18883;SDS011;9574;47.282;9.640;2022-11-20T02:43:38;2.27;;;2.07;;
18883;SDS011;9574;47.282;9.640;2022-11-20T02:46:07;3.40;;;2.33;;
18883;SDS011;9574;47.282;9.640;2022-11-20T02:48:36;3.00;;;1.90;;
18883;SDS011;9574;47.282;9.640;2022-11-20T02:51:06;2.50;;;2.10;;
18883;SDS011;9574;47.282;9.640;2022-11-20T02:53:39;2.03;;;1.80;;
18883;SDS011;9574;47.282;9.640;2022-11-20T02:56:11;4.10;;;2.13;;
18883;SDS011;9574;47.282;9.640;2022-11-20T02:58:41;4.43;;;2.50;;
18883;SDS011;9574;47.282;9.640;2022-11-20T03:01:12;3.53;;;2.20;;
18883;SDS011;9574;47.282;9.640;2022-11-20T03:03:39;2.23;;;1.97;;
18883;SDS011;9574;47.282;9.640;2022-11-20T03:06:07;2.07;;;1.60;;
18883;SDS011;9574;47.282;9.640;2022-11-20T03:08:37;3.33;;;1.77;;
18883;SDS011;9574;47.282;9.640;2022-11-20T03:11:13;2.13;;;1.90;;
18883;SDS011;9574;47.282;9.640;2022-11-20T03:13:43;2.60;;;1.70;;
18883;SDS011;9574;47.282;9.640;2022-11-20T03:16:14;2.07;;;1.70;;
18883;SDS011;9574;47.282;9.640;2022-11-20T03:18:43;3.17;;;1.97;;
18883;SDS011;9574;47.282;9.640;2022-11-20T03:21:14;2.20;;;1.90;;
18883;SDS011;9574;47.282;9.640;2022-11-20T03:23:46;3.33;;;2.10;;
18883;SDS011;9574;47.282;9.640;2022-11-20T03:26:15;1.83;;;1.70;;
18883;SDS011;9574;47.282;9.640;2022-11-20T03:28:48;2.13;;;1.60;;
18883;SDS011;9574;47.282;9.640;2022-11-20T03:31:20;4.53;;;1.80;;
18883;SDS011;9574;47.282;9.640;2022-11-20T03:33:51;3.70;;;1.83;;
18883;SDS011;9574;47.282;9.640;2022-11-20T03:36:22;2.27;;;1.90;;
18883;SDS011;9574;47.282;9.640;2022-11-20T03:38:50;1.80;;;1.37;;
18883;SDS011;9574;47.282;9.640;2022-11-20T03:41:21;1.60;;;1.50;;
18883;SDS011;9574;47.282;9.640;2022-11-20T03:43:51;2.27;;;1.57;;
18883;SDS011;9574;47.282;9.640;2022-11-20T03:46:21;1.60;;;1.40;;
18883;SDS011;9574;47.282;9.640;2022-11-20T03:48:51;3.47;;;1.83;;
18883;SDS011;9574;47.282;9.640;2022-11-20T03:51:21;1.80;;;1.60;;
18883;SDS011;9574;47.282;9.640;2022-11-20T03:53:54;4.17;;;1.93;;
18883;SDS011;9574;47.282;9.640;2022-11-20T03:56:25;3.50;;;2.03;;
18883;SDS011;9574;47.282;9.640;2022-11-20T03:58:58;2.90;;;2.03;;
18883;SDS011;9574;47.282;9.640;2022-11-20T04:01:34;3.00;;;2.20;;
18883;SDS011;9574;47.282;9.640;2022-11-20T04:04:04;3.23;;;2.23;;
18883;SDS011;9574;47.282;9.640;2022-11-20T04:06:34;2.73;;;1.80;;
18883;SDS011;9574;47.282;9.640;2022-11-20T04:09:05;3.23;;;1.93;;
18883;SDS011;9574;47.282;9.640;2022-11-20T04:11:35;2.10;;;1.90;;
18883;SDS011;9574;47.282;9.640;2022-11-20T04:14:11;4.10;;;2.00;;
18883;SDS011;9574;47.282;9.640;2022-11-20T04:16:40;2.20;;;1.90;;
18883;SDS011;9574;47.282;9.640;2022-11-20T04:19:11;2.53;;;1.90;;
18883;SDS011;9574;47.282;9.640;2022-11-20T04:21:39;2.87;;;1.70;;
18883;SDS011;9574;47.282;9.640;2022-11-20T04:24:11;1.50;;;1.40;;
18883;SDS011;9574;47.282;9.640;2022-11-20T04:26:46;2.43;;;1.87;;
18883;SDS011;9574;47.282;9.640;2022-11-20T04:29:16;1.93;;;1.67;;
18883;SDS011;9574;47.282;9.640;2022-11-20T04:31:45;1.77;;;1.57;;
18883;SDS011;9574;47.282;9.640;2022-11-20T04:34:12;2.67;;;1.80;;
18883;SDS011;9574;47.282;9.640;2022-11-20T04:36:39;1.50;;;1.40;;
18883;SDS011;9574;47.282;9.640;2022-11-20T04:39:13;2.23;;;1.70;;
18883;SDS011;9574;47.282;9.640;2022-11-20T04:41:48;1.63;;;1.40;;
18883;SDS011;9574;47.282;9.640;2022-11-20T04:44:38;2.03;;;1.50;;
18883;SDS011;9574;47.282;9.640;2022-11-20T04:47:06;1.80;;;1.70;;
18883;SDS011;9574;47.282;9.640;2022-11-20T04:49:33;2.43;;;1.40;;
18883;SDS011;9574;47.282;9.640;2022-11-20T04:52:04;1.73;;;1.40;;
18883;SDS011;9574;47.282;9.640;2022-11-20T04:54:32;2.60;;;1.60;;
18883;SDS011;9574;47.282;9.640;2022-11-20T04:57:01;2.17;;;1.50;;
18883;SDS011;9574;47.282;9.640;2022-11-20T04:59:29;1.60;;;1.50;;
18883;SDS011;9574;47.282;9.640;2022-11-20T05:01:56;2.13;;;1.60;;
18883;SDS011;9574;47.282;9.640;2022-11-20T05:04:25;3.00;;;1.73;;
18883;SDS011;9574;47.282;9.640;2022-11-20T05:06:56;3.07;;;1.80;;
18883;SDS011;9574;47.282;9.640;2022-11-20T05:09:23;2.70;;;2.07;;
18883;SDS011;9574;47.282;9.640;2022-11-20T05:11:50;4.70;;;2.20;;
18883;SDS011;9574;47.282;9.640;2022-11-20T05:14:21;2.03;;;1.83;;
18883;SDS011;9574;47.282;9.640;2022-11-20T05:16:51;1.83;;;1.60;;
18883;SDS011;9574;47.282;9.640;2022-11-20T05:19:20;2.80;;;1.93;;
18883;SDS011;9574;47.282;9.640;2022-11-20T05:21:50;1.87;;;1.73;;
18883;SDS011;9574;47.282;9.640;2022-11-20T05:24:19;2.10;;;1.70;;
18883;SDS011;9574;47.282;9.640;2022-11-20T05:26:45;3.00;;;2.00;;
18883;SDS011;9574;47.282;9.640;2022-11-20T05:29:13;4.17;;;2.10;;
18883;SDS011;9574;47.282;9.640;2022-11-20T05:31:45;3.03;;;2.50;;
18883;SDS011;9574;47.282;9.640;2022-11-20T05:34:13;7.00;;;3.30;;
18883;SDS011;9574;47.282;9.640;2022-11-20T05:36:43;4.50;;;2.60;;
18883;SDS011;9574;47.282;9.640;2022-11-20T05:39:10;1.67;;;1.57;;
18883;SDS011;9574;47.282;9.640;2022-11-20T05:41:45;1.37;;;1.27;;
18883;SDS011;9574;47.282;9.640;2022-11-20T05:44:32;2.53;;;1.33;;
18883;SDS011;9574;47.282;9.640;2022-11-20T05:47:05;2.77;;;1.37;;
18883;SDS011;9574;47.282;9.640;2022-11-20T05:49:36;3.50;;;1.50;;
18883;SDS011;9574;47.282;9.640;2022-11-20T05:52:06;1.60;;;1.30;;
18883;SDS011;9574;47.282;9.640;2022-11-20T05:54:36;2.23;;;1.30;;
18883;SDS011;9574;47.282;9.640;2022-11-20T05:57:06;1.40;;;1.20;;
18883;SDS011;9574;47.282;9.640;2022-11-20T05:59:36;1.97;;;0.93;;
18883;SDS011;9574;47.282;9.640;2022-11-20T06:02:11;1.40;;;1.30;;
18883;SDS011;9574;47.282;9.640;2022-11-20T06:04:42;1.50;;;1.30;;
18883;SDS011;9574;47.282;9.640;2022-11-20T06:07:16;2.00;;;1.40;;
18883;SDS011;9574;47.282;9.640;2022-11-20T06:09:43;1.40;;;1.30;;
18883;SDS011;9574;47.282;9.640;2022-11-20T06:12:12;1.57;;;1.40;;
18883;SDS011;9574;47.282;9.640;2022-11-20T06:14:39;2.03;;;1.60;;
18883;SDS011;9574;47.282;9.640;2022-11-20T06:17:13;2.03;;;1.63;;
18883;SDS011;9574;47.282;9.640;2022-11-20T06:19:40;1.97;;;1.50;;
18883;SDS011;9574;47.282;9.640;2022-11-20T06:22:12;2.07;;;1.40;;
18883;SDS011;9574;47.282;9.640;2022-11-20T06:24:39;1.60;;;1.50;;
18883;SDS011;9574;47.282;9.640;2022-11-20T06:27:10;1.63;;;1.37;;
18883;SDS011;9574;47.282;9.640;2022-11-20T06:29:40;2.00;;;1.60;;
18883;SDS011;9574;47.282;9.640;2022-11-20T06:32:10;1.80;;;1.63;;
18883;SDS011;9574;47.282;9.640;2022-11-20T06:34:43;2.30;;;2.10;;
18883;SDS011;9574;47.282;9.640;2022-11-20T06:37:11;2.67;;;2.03;;
18883;SDS011;9574;47.282;9.640;2022-11-20T06:39:41;2.20;;;1.80;;
18883;SDS011;9574;47.282;9.640;2022-11-20T06:42:07;3.17;;;1.77;;
18883;SDS011;9574;47.282;9.640;2022-11-20T06:44:36;4.23;;;2.50;;
18883;SDS011;9574;47.282;9.640;2022-11-20T06:47:07;2.83;;;2.17;;
18883;SDS011;9574;47.282;9.640;2022-11-20T06:49:35;4.30;;;2.30;;
18883;SDS011;9574;47.282;9.640;2022-11-20T06:52:03;4.37;;;2.40;;
18883;SDS011;9574;47.282;9.640;2022-11-20T06:54:31;3.40;;;2.23;;
18883;SDS011;9574;47.282;9.640;2022-11-20T06:56:58;3.53;;;2.70;;
18883;SDS011;9574;47.282;9.640;2022-11-20T06:59:26;3.47;;;2.60;;
18883;SDS011;9574;47.282;9.640;2022-11-20T07:01:54;4.67;;;3.80;;
18883;SDS011;9574;47.282;9.640;2022-11-20T07:04:21;6.10;;;3.30;;
18883;SDS011;9574;47.282;9.640;2022-11-20T07:06:52;3.70;;;3.03;;
18883;SDS011;9574;47.282;9.640;2022-11-20T07:09:19;6.13;;;3.43;;
18883;SDS011;9574;47.282;9.640;2022-11-20T07:11:48;3.67;;;2.83;;
18883;SDS011;9574;47.282;9.640;2022-11-20T07:14:16;3.63;;;3.00;;
18883;SDS011;9574;47.282;9.640;2022-11-20T07:16:45;3.77;;;2.83;;
18883;SDS011;9574;47.282;9.640;2022-11-20T07:19:13;11.27;;;3.77;;
18883;SDS011;9574;47.282;9.640;2022-11-20T07:21:40;5.63;;;3.37;;
18883;SDS011;9574;47.282;9.640;2022-11-20T07:24:10;6.90;;;4.17;;
18883;SDS011;9574;47.282;9.640;2022-11-20T07:26:38;7.53;;;4.73;;
18883;SDS011;9574;47.282;9.640;2022-11-20T07:29:05;5.83;;;4.00;;
18883;SDS011;9574;47.282;9.640;2022-11-20T07:31:32;6.67;;;3.93;;
18883;SDS011;9574;47.282;9.640;2022-11-20T07:34:05;5.47;;;3.87;;
18883;SDS011;9574;47.282;9.640;2022-11-20T07:36:32;5.10;;;3.73;;
18883;SDS011;9574;47.282;9.640;2022-11-20T07:38:59;6.83;;;3.43;;
18883;SDS011;9574;47.282;9.640;2022-11-20T07:41:28;5.50;;;3.30;;
18883;SDS011;9574;47.282;9.640;2022-11-20T07:44:00;5.87;;;3.80;;
18883;SDS011;9574;47.282;9.640;2022-11-20T07:46:28;4.80;;;3.50;;
18883;SDS011;9574;47.282;9.640;2022-11-20T07:48:55;7.10;;;4.27;;
18883;SDS011;9574;47.282;9.640;2022-11-20T07:51:24;6.10;;;3.57;;
18883;SDS011;9574;47.282;9.640;2022-11-20T07:53:54;6.87;;;3.50;;
18883;SDS011;9574;47.282;9.640;2022-11-20T07:56:24;5.43;;;3.57;;
18883;SDS011;9574;47.282;9.640;2022-11-20T07:58:56;5.70;;;3.40;;
18883;SDS011;9574;47.282;9.640;2022-11-20T08:01:25;4.87;;;3.43;;
18883;SDS011;9574;47.282;9.640;2022-11-20T08:03:56;4.63;;;2.50;;
18883;SDS011;9574;47.282;9.640;2022-11-20T08:06:25;5.20;;;3.33;;
18883;SDS011;9574;47.282;9.640;2022-11-20T08:08:52;6.23;;;3.07;;
18883;SDS011;9574;47.282;9.640;2022-11-20T08:11:22;4.13;;;3.13;;
18883;SDS011;9574;47.282;9.640;2022-11-20T08:14:15;6.10;;;3.97;;
18883;SDS011;9574;47.282;9.640;2022-11-20T08:16:43;7.87;;;4.90;;
18883;SDS011;9574;47.282;9.640;2022-11-20T08:19:13;6.90;;;4.70;;
18883;SDS011;9574;47.282;9.640;2022-11-20T08:21:45;5.50;;;3.77;;
18883;SDS011;9574;47.282;9.640;2022-11-20T08:24:13;5.27;;;3.73;;
18883;SDS011;9574;47.282;9.640;2022-11-20T08:26:41;5.50;;;4.20;;
18883;SDS011;9574;47.282;9.640;2022-11-20T08:29:09;7.50;;;5.10;;
18883;SDS011;9574;47.282;9.640;2022-11-20T08:31:39;8.03;;;4.97;;
18883;SDS011;9574;47.282;9.640;2022-11-20T08:34:09;6.10;;;4.20;;
18883;SDS011;9574;47.282;9.640;2022-11-20T08:36:39;5.47;;;4.40;;
18883;SDS011;9574;47.282;9.640;2022-11-20T08:39:10;5.40;;;3.27;;
18883;SDS011;9574;47.282;9.640;2022-11-20T08:41:40;3.93;;;2.90;;
18883;SDS011;9574;47.282;9.640;2022-11-20T08:44:10;3.60;;;2.43;;
18883;SDS011;9574;47.282;9.640;2022-11-20T08:46:45;5.27;;;3.10;;
18883;SDS011;9574;47.282;9.640;2022-11-20T08:49:16;3.33;;;2.77;;
18883;SDS011;9574;47.282;9.640;2022-11-20T08:51:44;4.90;;;4.47;;
18883;SDS011;9574;47.282;9.640;2022-11-20T08:54:16;4.20;;;3.30;;
18883;SDS011;9574;47.282;9.640;2022-11-20T08:56:45;5.43;;;3.70;;
18883;SDS011;9574;47.282;9.640;2022-11-20T08:59:16;4.60;;;3.13;;
18883;SDS011;9574;47.282;9.640;2022-11-20T09:01:45;2.20;;;1.97;;
18883;SDS011;9574;47.282;9.640;2022-11-20T09:04:15;3.27;;;2.50;;
18883;SDS011;9574;47.282;9.640;2022-11-20T09:06:45;2.43;;;2.00;;
18883;SDS011;9574;47.282;9.640;2022-11-20T09:09:16;3.53;;;2.70;;
18883;SDS011;9574;47.282;9.640;2022-11-20T09:11:48;3.67;;;2.67;;
18883;SDS011;9574;47.282;9.640;2022-11-20T09:14:16;2.73;;;2.20;;
18883;SDS011;9574;47.282;9.640;2022-11-20T09:16:45;2.73;;;2.23;;
18883;SDS011;9574;47.282;9.640;2022-11-20T09:19:16;3.27;;;2.30;;
18883;SDS011;9574;47.282;9.640;2022-11-20T09:21:43;4.33;;;2.00;;
18883;SDS011;9574;47.282;9.640;2022-11-20T09:24:10;4.30;;;1.80;;
18883;SDS011;9574;47.282;9.640;2022-11-20T09:26:40;2.37;;;1.90;;
18883;SDS011;9574;47.282;9.640;2022-11-20T09:29:09;3.47;;;1.97;;
18883;SDS011;9574;47.282;9.640;2022-11-20T09:31:37;3.27;;;2.73;;
18883;SDS011;9574;47.282;9.640;2022-11-20T09:34:10;6.37;;;2.57;;
18883;SDS011;9574;47.282;9.640;2022-11-20T09:36:37;4.10;;;2.63;;
18883;SDS011;9574;47.282;9.640;2022-11-20T09:39:06;3.67;;;2.47;;
18883;SDS011;9574;47.282;9.640;2022-11-20T09:41:44;2.70;;;2.27;;
18883;SDS011;9574;47.282;9.640;2022-11-20T09:44:31;3.17;;;2.53;;
18883;SDS011;9574;47.282;9.640;2022-11-20T09:47:26;4.30;;;2.60;;
18883;SDS011;9574;47.282;9.640;2022-11-20T09:50:15;6.27;;;2.70;;
18883;SDS011;9574;47.282;9.640;2022-11-20T09:52:56;5.53;;;2.53;;
18883;SDS011;9574;47.282;9.640;2022-11-20T09:55:39;3.00;;;2.67;;
18883;SDS011;9574;47.282;9.640;2022-11-20T09:58:07;4.17;;;2.43;;
18883;SDS011;9574;47.282;9.640;2022-11-20T10:00:40;5.00;;;2.40;;
18883;SDS011;9574;47.282;9.640;2022-11-20T10:03:11;3.87;;;2.20;;
18883;SDS011;9574;47.282;9.640;2022-11-20T10:05:50;2.67;;;1.80;;
18883;SDS011;9574;47.282;9.640;2022-11-20T10:08:21;3.20;;;2.07;;
18883;SDS011;9574;47.282;9.640;2022-11-20T10:10:52;3.57;;;2.30;;
18883;SDS011;9574;47.282;9.640;2022-11-20T10:13:31;3.30;;;2.30;;
18883;SDS011;9574;47.282;9.640;2022-11-20T10:16:13;3.00;;;2.20;;
18883;SDS011;9574;47.282;9.640;2022-11-20T10:18:51;2.87;;;2.27;;
18883;SDS011;9574;47.282;9.640;2022-11-20T10:21:33;2.30;;;1.80;;
18883;SDS011;9574;47.282;9.640;2022-11-20T10:27:10;3.27;;;1.93;;
18883;SDS011;9574;47.282;9.640;2022-11-20T10:29:53;2.17;;;1.97;;
18883;SDS011;9574;47.282;9.640;2022-11-20T10:32:29;2.07;;;1.60;;
18883;SDS011;9574;47.282;9.640;2022-11-20T10:35:03;6.67;;;2.10;;
18883;SDS011;9574;47.282;9.640;2022-11-20T10:37:42;3.63;;;1.80;;
18883;SDS011;9574;47.282;9.640;2022-11-20T10:40:17;3.53;;;1.90;;
18883;SDS011;9574;47.282;9.640;2022-11-20T10:42:52;2.87;;;1.77;;
18883;SDS011;9574;47.282;9.640;2022-11-20T10:45:36;3.47;;;2.00;;
18883;SDS011;9574;47.282;9.640;2022-11-20T10:48:16;2.90;;;2.00;;
18883;SDS011;9574;47.282;9.640;2022-11-20T10:50:53;3.57;;;1.80;;
18883;SDS011;9574;47.282;9.640;2022-11-20T10:53:35;2.33;;;1.90;;
18883;SDS011;9574;47.282;9.640;2022-11-20T10:56:21;2.07;;;1.83;;
18883;SDS011;9574;47.282;9.640;2022-11-20T10:59:00;2.37;;;1.70;;
18883;SDS011;9574;47.282;9.640;2022-11-20T11:01:39;4.33;;;1.80;;
18883;SDS011;9574;47.282;9.640;2022-11-20T11:04:15;1.40;;;1.30;;
18883;SDS011;9574;47.282;9.640;2022-11-20T11:07:03;3.20;;;1.57;;
18883;SDS011;9574;47.282;9.640;2022-11-20T11:09:39;2.23;;;1.33;;
18883;SDS011;9574;47.282;9.640;2022-11-20T11:12:11;1.97;;;1.23;;
18883;SDS011;9574;47.282;9.640;2022-11-20T11:14:45;1.40;;;1.20;;
18883;SDS011;9574;47.282;9.640;2022-11-20T11:17:18;3.10;;;1.33;;
18883;SDS011;9574;47.282;9.640;2022-11-20T11:22:45;1.67;;;1.30;;
18883;SDS011;9574;47.282;9.640;2022-11-20T11:25:21;1.53;;;1.40;;
18883;SDS011;9574;47.282;9.640;2022-11-20T11:27:53;1.40;;;1.00;;
18883;SDS011;9574;47.282;9.640;2022-11-20T11:30:26;2.57;;;2.13;;
18883;SDS011;9574;47.282;9.640;2022-11-20T11:33:06;1.73;;;1.37;;
18883;SDS011;9574;47.282;9.640;2022-11-20T11:35:43;2.53;;;1.73;;
18883;SDS011;9574;47.282;9.640;2022-11-20T11:38:14;2.03;;;1.63;;
18883;SDS011;9574;47.282;9.640;2022-11-20T11:40:52;1.93;;;1.67;;
18883;SDS011;9574;47.282;9.640;2022-11-20T11:43:23;3.20;;;1.20;;
18883;SDS011;9574;47.282;9.640;2022-11-20T11:46:21;1.00;;;0.90;;
18883;SDS011;9574;47.282;9.640;2022-11-20T11:48:59;2.03;;;1.27;;
18883;SDS011;9574;47.282;9.640;2022-11-20T11:51:33;1.40;;;1.10;;
18883;SDS011;9574;47.282;9.640;2022-11-20T11:54:10;2.33;;;1.63;;
18883;SDS011;9574;47.282;9.640;2022-11-20T11:56:52;4.20;;;2.00;;
18883;SDS011;9574;47.282;9.640;2022-11-20T11:59:27;1.43;;;1.23;;
18883;SDS011;9574;47.282;9.640;2022-11-20T12:02:11;1.73;;;1.10;;
18883;SDS011;9574;47.282;9.640;2022-11-20T12:04:49;2.67;;;1.20;;
18883;SDS011;9574;47.282;9.640;2022-11-20T12:07:27;2.97;;;1.27;;
18883;SDS011;9574;47.282;9.640;2022-11-20T12:10:12;1.57;;;1.10;;
18883;SDS011;9574;47.282;9.640;2022-11-20T12:12:54;1.10;;;0.83;;
18883;SDS011;9574;47.282;9.640;2022-11-20T12:15:29;4.50;;;1.23;;
18883;SDS011;9574;47.282;9.640;2022-11-20T12:18:00;1.07;;;0.80;;
18883;SDS011;9574;47.282;9.640;2022-11-20T12:20:29;1.70;;;1.27;;
18883;SDS011;9574;47.282;9.640;2022-11-20T12:23:14;1.17;;;0.90;;
18883;SDS011;9574;47.282;9.640;2022-11-20T12:25:56;1.13;;;1.00;;
18883;SDS011;9574;47.282;9.640;2022-11-20T12:28:41;1.27;;;1.10;;
18883;SDS011;9574;47.282;9.640;2022-11-20T12:31:16;1.67;;;0.80;;
18883;SDS011;9574;47.282;9.640;2022-11-20T12:36:48;0.97;;;0.70;;
18883;SDS011;9574;47.282;9.640;2022-11-20T12:39:27;1.87;;;0.63;;
18883;SDS011;9574;47.282;9.640;2022-11-20T12:42:06;0.70;;;0.70;;
18883;SDS011;9574;47.282;9.640;2022-11-20T12:45:10;0.60;;;0.60;;
18883;SDS011;9574;47.282;9.640;2022-11-20T12:47:59;1.17;;;0.60;;
18883;SDS011;9574;47.282;9.640;2022-11-20T12:50:44;0.50;;;0.50;;
18883;SDS011;9574;47.282;9.640;2022-11-20T12:53:33;1.63;;;0.70;;
18883;SDS011;9574;47.282;9.640;2022-11-20T12:56:13;0.60;;;0.60;;
18883;SDS011;9574;47.282;9.640;2022-11-20T12:58:55;1.70;;;0.70;;
18883;SDS011;9574;47.282;9.640;2022-11-20T13:01:32;1.53;;;1.10;;
18883;SDS011;9574;47.282;9.640;2022-11-20T13:04:16;0.60;;;0.60;;
18883;SDS011;9574;47.282;9.640;2022-11-20T13:06:55;0.60;;;0.60;;
18883;SDS011;9574;47.282;9.640;2022-11-20T13:09:25;0.60;;;0.60;;
18883;SDS011;9574;47.282;9.640;2022-11-20T13:11:58;0.80;;;0.80;;
18883;SDS011;9574;47.282;9.640;2022-11-20T13:14:33;1.90;;;0.60;;
18883;SDS011;9574;47.282;9.640;2022-11-20T13:17:08;1.13;;;0.73;;
18883;SDS011;9574;47.282;9.640;2022-11-20T13:19:41;0.60;;;0.60;;
18883;SDS011;9574;47.282;9.640;2022-11-20T13:22:23;1.13;;;0.60;;
18883;SDS011;9574;47.282;9.640;2022-11-20T13:24:51;0.93;;;0.60;;
18883;SDS011;9574;47.282;9.640;2022-11-20T13:27:25;0.50;;;0.50;;
18883;SDS011;9574;47.282;9.640;2022-11-20T13:29:59;0.87;;;0.70;;
18883;SDS011;9574;47.282;9.640;2022-11-20T13:32:33;0.70;;;0.70;;
18883;SDS011;9574;47.282;9.640;2022-11-20T13:35:03;1.03;;;0.90;;
18883;SDS011;9574;47.282;9.640;2022-11-20T13:37:33;0.70;;;0.70;;
18883;SDS011;9574;47.282;9.640;2022-11-20T13:40:20;0.70;;;0.70;;
18883;SDS011;9574;47.282;9.640;2022-11-20T13:42:55;0.60;;;0.60;;
18883;SDS011;9574;47.282;9.640;2022-11-20T13:45:28;0.70;;;0.70;;
18883;SDS011;9574;47.282;9.640;2022-11-20T13:48:02;0.97;;;0.80;;
18883;SDS011;9574;47.282;9.640;2022-11-20T13:50:39;1.10;;;1.00;;
18883;SDS011;9574;47.282;9.640;2022-11-20T13:53:26;0.80;;;0.73;;
18883;SDS011;9574;47.282;9.640;2022-11-20T13:56:10;1.17;;;0.70;;
18883;SDS011;9574;47.282;9.640;2022-11-20T13:58:50;0.70;;;0.70;;
18883;SDS011;9574;47.282;9.640;2022-11-20T14:01:28;0.93;;;0.77;;
18883;SDS011;9574;47.282;9.640;2022-11-20T14:04:13;0.50;;;0.50;;
18883;SDS011;9574;47.282;9.640;2022-11-20T14:06:46;1.63;;;1.07;;
18883;SDS011;9574;47.282;9.640;2022-11-20T14:09:24;0.77;;;0.60;;
18883;SDS011;9574;47.282;9.640;2022-11-20T14:11:53;0.90;;;0.90;;
18883;SDS011;9574;47.282;9.640;2022-11-20T14:14:22;0.97;;;0.97;;
18883;SDS011;9574;47.282;9.640;2022-11-20T14:17:04;1.07;;;1.07;;
18883;SDS011;9574;47.282;9.640;2022-11-20T14:19:38;0.93;;;0.90;;
18883;SDS011;9574;47.282;9.640;2022-11-20T14:22:09;1.73;;;1.10;;
18883;SDS011;9574;47.282;9.640;2022-11-20T14:24:41;1.10;;;1.00;;
18883;SDS011;9574;47.282;9.640;2022-11-20T14:27:12;1.03;;;0.80;;
18883;SDS011;9574;47.282;9.640;2022-11-20T14:29:41;1.10;;;1.00;;
18883;SDS011;9574;47.282;9.640;2022-11-20T14:32:09;1.07;;;1.07;;
18883;SDS011;9574;47.282;9.640;2022-11-20T14:34:41;1.33;;;1.07;;
18883;SDS011;9574;47.282;9.640;2022-11-20T14:37:18;1.70;;;1.07;;
18883;SDS011;9574;47.282;9.640;2022-11-20T14:39:50;1.00;;;1.00;;
18883;SDS011;9574;47.282;9.640;2022-11-20T14:42:25;1.80;;;0.90;;
18883;SDS011;9574;47.282;9.640;2022-11-20T14:44:57;1.17;;;1.03;;
18883;SDS011;9574;47.282;9.640;2022-11-20T14:47:27;1.67;;;1.20;;
18883;SDS011;9574;47.282;9.640;2022-11-20T14:50:00;0.73;;;0.73;;
18883;SDS011;9574;47.282;9.640;2022-11-20T14:52:28;1.90;;;1.20;;
18883;SDS011;9574;47.282;9.640;2022-11-20T14:54:56;1.10;;;1.00;;
18883;SDS011;9574;47.282;9.640;2022-11-20T14:57:25;0.80;;;0.70;;
18883;SDS011;9574;47.282;9.640;2022-11-20T15:00:17;1.20;;;1.10;;
18883;SDS011;9574;47.282;9.640;2022-11-20T15:02:46;1.10;;;1.00;;
18883;SDS011;9574;47.282;9.640;2022-11-20T15:05:17;0.87;;;0.83;;
18883;SDS011;9574;47.282;9.640;2022-11-20T15:07:46;1.37;;;1.27;;
18883;SDS011;9574;47.282;9.640;2022-11-20T15:10:19;0.80;;;0.80;;
18883;SDS011;9574;47.282;9.640;2022-11-20T15:12:49;0.80;;;0.80;;
18883;SDS011;9574;47.282;9.640;2022-11-20T15:15:21;1.00;;;0.90;;
18883;SDS011;9574;47.282;9.640;2022-11-20T15:17:53;1.33;;;0.90;;
18883;SDS011;9574;47.282;9.640;2022-11-20T15:20:26;2.13;;;1.20;;
18883;SDS011;9574;47.282;9.640;2022-11-20T15:22:58;1.77;;;1.00;;
18883;SDS011;9574;47.282;9.640;2022-11-20T15:25:26;1.37;;;1.17;;
18883;SDS011;9574;47.282;9.640;2022-11-20T15:27:56;2.63;;;1.50;;
18883;SDS011;9574;47.282;9.640;2022-11-20T15:30:25;2.40;;;1.70;;
18883;SDS011;9574;47.282;9.640;2022-11-20T15:32:52;3.33;;;1.63;;
18883;SDS011;9574;47.282;9.640;2022-11-20T15:35:21;2.67;;;1.97;;
18883;SDS011;9574;47.282;9.640;2022-11-20T15:37:52;4.47;;;2.30;;
18883;SDS011;9574;47.282;9.640;2022-11-20T15:40:19;1.40;;;1.10;;
18883;SDS011;9574;47.282;9.640;2022-11-20T15:42:48;2.30;;;1.30;;